Main page
METAR-TAF:

METAR-TAF

Airports :

Andravida, Greece

latitude: 37-55N, longitude: 021-17E, elevation: 10 m

Current weather observation

The report was made 24 minutes ago, at 09:20 UTC
Wind 3 kt from variable directions
Temperature 34°C
Humidity 28%
Pressure 1010 hPa
Visibility 10 km or more
Few clouds at a height of 2000 ft

METAR: LGAD 240920Z VRB03KT 9999 FEW020 34/13 Q1010

Time: 12:44 (09:44 UTC)

Forecast

The report was made 1 hour and 44 minutes ago, at 08:00 UTC
Forecast valid from 24 at 09 UTC to 24 at 18 UTC
Wind 8 kt from the North/Northeast
Visibility 10 km or more
Few clouds at a height of 2000 ft
Becoming
from 24 at 10 UTC to 24 at 12 UTC
Wind 10 kt from the West

TAF: LGAD 240800Z 2409/2418 03008KT 9999 FEW020 BECMG 2410/2412 28010KT

Weather observations and forecasts of more than 4000 airports (METAR and TAF reports).

The available stations are represented by yellow and red dots on the map.

Hover mouse over dot to see the name of the station.

Then click to see weather observations and forecasts.

To change the map : click on the green buttons with a black cross to zoom in, on the green button with a dash to zoom out, or on the green arrows for adjacent maps.


METAR-TAF: